LFOPLFMP

Guest
Details From LFOP - Rouen Vallee De La Seine
To LFMP - Rivesaltes
Flight Number -
Tags Generated
Created
Modified
Stats Distance 405 nm / 750 km
Max Altitude 0 ft / 0 m
Waypoints 3
Social Downloads 0
Likes 0
Share VATSIM

Download

Looking for another format? Having issues loading an existing format? Contact us
Advertisement - Login to hide

Notes

Generated

Route

LFOP PPG LFMP

ID Type Via Altitude Latitude Longitude Leg Dist Tot Dist Heading (true) Name
O LFOP APT - 0 ft / 0 m 49.37947˚ 1.16845˚ - 0 nm - -
PPG VOR - 0 ft / 0 m 42.75047˚ 2.86714˚ 404 nm 404 nm 169° / 171° PERPIGNAN RIVESALTES VOR-DME
O LFMP APT - 0 ft / 0 m 42.73990˚ 2.86519˚ 0 nm 404 nm 188° / 188° Rivesaltes

Altitude Profile

Advertisement - Login to hide

Weather


0- 5 10 15 20 25 30 35+ Temperature / ° C

Clouds and Precipitation
Forecast for 2017-12-12 00:00 UTC. Updated 2 hours ago

Ground ~20,000 ft ~40,000 ft Winds

LFOP

Details ICAO LFOP (URO)
Name Rouen Vallee de la Seine
Region France
Timezone Europe/Paris (UTC+1.0)
Stats Elevation 512 ft / 156 m (AMSL)
Location 49.385211° 1.176192°
Runways 1
Magnetic Variation 0.183° E

METAR

LFOP 112100Z AUTO 32013KT 9999 -RA BKN018 OVC023 04/02 Q0993 NOSIG

Decode

TAF

TAF AMD LFOP 112033Z 1120/1218 31012KT 9999 RA OVC015 BECMG 1120/1122 36015KT NSW BKN030 BECMG 1122/1124 27005KT PROB40 TEMPO 1200/1208 2000 SHRA BKN013TCU

Decode

Departure Runways

ID Width Length Bearing (true) Bearing (mag) Surface Threshold Offset Overrun Length
04 148 ft / 45 m 5,577 ft / 1,700 m 41.28° 41.10° Asphalt 0 ft / 0 m 0 ft / 0 m
22 148 ft / 45 m 5,577 ft / 1,700 m 221.29° 221.11° Asphalt 0 ft / 0 m 0 ft / 0 m

LFMP

Details ICAO LFMP (PGF)
Name Rivesaltes
Region France
Timezone Europe/Paris (UTC+1.0)
Stats Elevation 143 ft / 44 m (AMSL)
Location 42.740488° 2.870594°
Runways 2
Magnetic Variation 0.989° E

METAR

LFMP 112100Z AUTO VRB02KT 9999 FEW070 SCT080 BKN098 06/04 Q1000 NOSIG

Decode

TAF

TAF LFMP 111400Z 1115/1215 VRB03KT 9999 OVC030 TEMPO 1115/1117 RA BKN013TCU BECMG 1203/1205 32015KT NSC TEMPO 1205/1212 32020G30KT

Decode

Destination Runways

ID Width Length Bearing (true) Bearing (mag) Surface Threshold Offset Overrun Length
13 66 ft / 20 m 4,231 ft / 1,290 m 127.54° 126.55° Asphalt 492 ft / 150 m 0 ft / 0 m
15 148 ft / 45 m 8,189 ft / 2,496 m 148.38° 147.39° Asphalt 0 ft / 0 m 230 ft / 70 m
31 66 ft / 20 m 4,231 ft / 1,290 m 307.55° 306.56° Asphalt 1,148 ft / 350 m 0 ft / 0 m
33 148 ft / 45 m 8,189 ft / 2,496 m 328.39° 327.40° Asphalt 558 ft / 170 m 230 ft / 70 m

Approach Navaids

Runway Type Ident Frequency Range Bearing (true) Bearing (mag) Slope Elevation
33 Localiser PL 111.75 MHz 18 nm / 33 km 328.30° 327.31° - 124 ft / 38 m (AMSL)
33 Glidescope PL 111.75 MHz 10 nm / 19 km 328.38° 327.40° 3.00° 124 ft / 38 m (AMSL)
33 DME PL 111.75 MHz 18 nm / 33 km - - - 183 ft / 56 m (AMSL)